createdAt,value
2023-03-29T00:00:16.762Z,99884.00
2023-03-29T00:00:28.776Z,99885.69
2023-03-29T00:00:40.946Z,99880.44
2023-03-29T00:01:00.209Z,99883.84
2023-03-29T00:01:12.516Z,99886.41
2023-03-29T00:01:44.329Z,99884.59
2023-03-29T00:01:56.812Z,99888.88
2023-03-29T00:02:09.315Z,99885.41
2023-03-29T00:02:21.523Z,99882.78
2023-03-29T00:02:33.655Z,99888.00
2023-03-29T00:02:48.414Z,99885.47
2023-03-29T00:03:02.551Z,99884.56
2023-03-29T00:03:14.884Z,99886.34
2023-03-29T00:03:27.800Z,99883.69
2023-03-29T00:03:40.337Z,99888.88
2023-03-29T00:03:54.014Z,99883.78
2023-03-29T00:04:06.788Z,99888.97
2023-03-29T00:04:22.069Z,99882.88
2023-03-29T00:04:34.319Z,99877.66
2023-03-29T00:04:46.968Z,99888.88
2023-03-29T00:05:03.937Z,99882.00
2023-03-29T00:05:18.153Z,99881.97
2023-03-29T00:05:33.976Z,99883.78
2023-03-29T00:05:46.388Z,99882.06
2023-03-29T00:06:03.061Z,99879.47
2023-03-29T00:06:21.958Z,99883.78
2023-03-29T00:06:34.068Z,99885.47
2023-03-29T00:06:47.836Z,99882.00
2023-03-29T00:07:04.140Z,99876.81
2023-03-29T00:07:16.216Z,99875.91
2023-03-29T00:07:30.233Z,99869.84
2023-03-29T00:07:42.731Z,99875.91
2023-03-29T00:07:54.629Z,99878.47
2023-03-29T00:08:07.517Z,99878.50
2023-03-29T00:08:22.038Z,99870.69
2023-03-29T00:08:34.151Z,99871.53
2023-03-29T00:08:46.126Z,99877.59
2023-03-29T00:08:58.822Z,99879.31
2023-03-29T00:09:11.287Z,99882.72
2023-03-29T00:09:26.536Z,99874.09
2023-03-29T00:09:38.891Z,99880.13
2023-03-29T00:09:50.771Z,99884.44
2023-03-29T00:10:06.474Z,99881.91
2023-03-29T00:10:18.965Z,99880.34
2023-03-29T00:10:32.642Z,99876.97
2023-03-29T00:10:49.129Z,99877.78
2023-03-29T00:11:01.537Z,99882.06
2023-03-29T00:11:13.845Z,99879.44
2023-03-29T00:11:27.152Z,99875.19
2023-03-29T00:11:39.481Z,99879.63
2023-03-29T00:11:51.409Z,99878.75
2023-03-29T00:12:06.160Z,99881.34
2023-03-29T00:12:18.090Z,99881.31
2023-03-29T00:12:30.792Z,99878.66
2023-03-29T00:12:42.753Z,99873.47
2023-03-29T00:12:54.730Z,99873.41
2023-03-29T00:13:06.687Z,99878.59
2023-03-29T00:13:18.630Z,99875.09
2023-03-29T00:13:30.695Z,99879.41
2023-03-29T00:13:43.266Z,99875.09
2023-03-29T00:13:55.349Z,99875.97
2023-03-29T00:14:07.350Z,99871.69
2023-03-29T00:14:19.295Z,99876.88
2023-03-29T00:14:31.454Z,99876.88
2023-03-29T00:14:43.402Z,99875.19
2023-03-29T00:14:55.380Z,99876.00
2023-03-29T00:15:08.329Z,99871.69
2023-03-29T00:15:21.703Z,99868.22
2023-03-29T00:15:33.671Z,99875.09
2023-03-29T00:15:46.585Z,99882.00
2023-03-29T00:15:58.485Z,99874.25
2023-03-29T00:16:10.609Z,99882.13
2023-03-29T00:16:22.728Z,99877.94
2023-03-29T00:16:35.278Z,99882.16
2023-03-29T00:16:47.374Z,99876.97
2023-03-29T00:16:59.503Z,99878.66
2023-03-29T00:17:11.617Z,99883.84
2023-03-29T00:17:23.790Z,99878.72
2023-03-29T00:17:36.026Z,99878.66
2023-03-29T00:17:48.043Z,99878.66
2023-03-29T00:18:00.189Z,99873.56
2023-03-29T00:18:12.101Z,99877.03
2023-03-29T00:18:24.032Z,99874.44
2023-03-29T00:18:36.024Z,99876.22
2023-03-29T00:18:50.988Z,99878.81
2023-03-29T00:19:04.318Z,99881.47
2023-03-29T00:19:16.334Z,99879.78
2023-03-29T00:19:28.938Z,99878.97
2023-03-29T00:19:44.098Z,99879.75
2023-03-29T00:19:56.111Z,99875.41
2023-03-29T00:20:10.383Z,99884.09
2023-03-29T00:20:22.365Z,99882.31
2023-03-29T00:20:34.391Z,99883.13
2023-03-29T00:20:46.347Z,99879.72
2023-03-29T00:21:00.019Z,99879.78
2023-03-29T00:21:12.305Z,99873.72
2023-03-29T00:21:24.343Z,99881.41
2023-03-29T00:21:36.287Z,99877.13
2023-03-29T00:21:48.265Z,99879.63
2023-03-29T00:22:00.342Z,99878.75
2023-03-29T00:22:13.192Z,99882.22
2023-03-29T00:22:25.733Z,99884.09
2023-03-29T00:22:40.055Z,99879.78
2023-03-29T00:22:52.025Z,99873.88
2023-03-29T00:23:04.403Z,99877.28
2023-03-29T00:23:18.208Z,99880.69
2023-03-29T00:23:30.559Z,99875.50
2023-03-29T00:23:42.493Z,99878.91
2023-03-29T00:23:54.598Z,99879.72
2023-03-29T00:24:06.726Z,99877.19
2023-03-29T00:24:18.781Z,99874.69
2023-03-29T00:24:30.679Z,99877.34
2023-03-29T00:24:42.649Z,99874.75
2023-03-29T00:24:54.767Z,99876.47
2023-03-29T00:25:07.295Z,99879.06
2023-03-29T00:25:19.208Z,99877.34
2023-03-29T00:25:31.298Z,99870.59
2023-03-29T00:25:45.061Z,99878.28
2023-03-29T00:25:57.118Z,99873.94
2023-03-29T00:26:09.595Z,99875.69
2023-03-29T00:26:21.800Z,99880.84
2023-03-29T00:26:33.770Z,99877.31
2023-03-29T00:26:45.907Z,99885.97
2023-03-29T00:26:58.040Z,99879.94
2023-03-29T00:27:09.929Z,99879.09
2023-03-29T00:27:22.931Z,99879.97
2023-03-29T00:27:35.286Z,99877.47
2023-03-29T00:27:47.465Z,99884.59
2023-03-29T00:27:59.336Z,99879.41
2023-03-29T00:28:11.257Z,99881.03
2023-03-29T00:28:23.551Z,99881.03
2023-03-29T00:28:35.576Z,99878.41
2023-03-29T00:28:47.583Z,99877.56
2023-03-29T00:28:59.571Z,99877.56
2023-03-29T00:29:11.500Z,99878.38
2023-03-29T00:29:23.892Z,99877.44
2023-03-29T00:29:35.879Z,99881.81
2023-03-29T00:29:48.157Z,99872.31
2023-03-29T00:30:00.179Z,99878.38
2023-03-29T00:30:12.709Z,99874.06
2023-03-29T00:30:24.721Z,99876.69
2023-03-29T00:30:36.665Z,99878.38
2023-03-29T00:30:50.822Z,99873.13
2023-03-29T00:31:09.265Z,99876.59
2023-03-29T00:31:21.235Z,99874.00
2023-03-29T00:31:33.400Z,99877.44
2023-03-29T00:31:51.302Z,99874.88
2023-03-29T00:32:03.434Z,99877.47
2023-03-29T00:32:15.506Z,99880.88
2023-03-29T00:32:27.479Z,99876.50
2023-03-29T00:32:39.499Z,99875.63
2023-03-29T00:32:51.782Z,99867.03
2023-03-29T00:33:03.794Z,99873.91
2023-03-29T00:33:16.474Z,99880.84
2023-03-29T00:33:28.356Z,99872.28
2023-03-29T00:33:41.349Z,99877.47
2023-03-29T00:33:53.415Z,99873.06
2023-03-29T00:34:05.428Z,99879.19
2023-03-29T00:34:17.343Z,99875.72
2023-03-29T00:34:32.423Z,99873.22
2023-03-29T00:34:46.075Z,99877.63
2023-03-29T00:35:00.752Z,99874.06
2023-03-29T00:35:12.745Z,99870.66
2023-03-29T00:35:24.703Z,99866.44
2023-03-29T00:35:39.208Z,99878.47
2023-03-29T00:35:53.347Z,99875.94
2023-03-29T00:36:07.236Z,99878.53
2023-03-29T00:36:19.896Z,99881.03
2023-03-29T00:36:31.844Z,99870.75
2023-03-29T00:36:43.764Z,99865.72
2023-03-29T00:36:58.086Z,99873.56
2023-03-29T00:37:10.091Z,99865.78
2023-03-29T00:37:22.530Z,99867.50
2023-03-29T00:37:34.919Z,99870.91
2023-03-29T00:37:50.954Z,99867.41
2023-03-29T00:38:03.154Z,99877.91
2023-03-29T00:38:15.569Z,99872.72
2023-03-29T00:38:28.073Z,99867.53
2023-03-29T00:38:40.307Z,99875.31
2023-03-29T00:38:52.257Z,99870.97
2023-03-29T00:39:04.506Z,99865.78
2023-03-29T00:39:18.009Z,99862.31
2023-03-29T00:39:30.833Z,99866.56
2023-03-29T00:39:43.903Z,99861.34
2023-03-29T00:39:56.939Z,99865.72
2023-03-29T00:40:11.610Z,99869.19
2023-03-29T00:40:23.923Z,99870.09
2023-03-29T00:40:41.870Z,99869.19
2023-03-29T00:40:53.794Z,99867.41
2023-03-29T00:41:07.777Z,99869.13
2023-03-29T00:41:19.830Z,99868.22
2023-03-29T00:41:32.236Z,99865.66
2023-03-29T00:41:45.986Z,99869.13
2023-03-29T00:41:57.951Z,99864.00
2023-03-29T00:42:13.743Z,99867.50
2023-03-29T00:42:26.156Z,99865.72
2023-03-29T00:42:38.444Z,99864.84
2023-03-29T00:42:50.393Z,99857.03
2023-03-29T00:43:02.281Z,99863.94
2023-03-29T00:43:15.847Z,99861.25
2023-03-29T00:43:27.972Z,99863.84
2023-03-29T00:44:01.012Z,99857.69
2023-03-29T00:44:50.515Z,99865.34
2023-03-29T00:45:21.154Z,99860.00
2023-03-29T00:45:35.819Z,99860.81
2023-03-29T00:45:48.247Z,99851.31
2023-03-29T00:46:00.343Z,99856.50
2023-03-29T00:46:13.391Z,99859.09
2023-03-29T00:46:27.046Z,99854.72
2023-03-29T00:46:39.318Z,99856.41
2023-03-29T00:46:51.437Z,99853.81
2023-03-29T00:47:03.576Z,99844.25
2023-03-29T00:47:18.053Z,99846.81
2023-03-29T00:47:32.660Z,99849.38
2023-03-29T00:47:55.481Z,99845.00
2023-03-29T00:48:17.304Z,99847.50
2023-03-29T00:48:30.010Z,99845.81
2023-03-29T00:48:42.351Z,99850.16
2023-03-29T00:48:58.826Z,99844.03
2023-03-29T00:49:15.369Z,99845.72
2023-03-29T00:49:27.415Z,99844.00
2023-03-29T00:49:39.768Z,99842.25
2023-03-29T00:49:52.807Z,99842.25
2023-03-29T00:50:12.481Z,99840.53
2023-03-29T00:50:40.089Z,99845.72
2023-03-29T00:50:57.248Z,99849.13
2023-03-29T00:51:11.160Z,99849.94
2023-03-29T00:51:27.366Z,99845.66
2023-03-29T00:51:41.361Z,99840.47
2023-03-29T00:51:53.360Z,99844.75
2023-03-29T00:52:06.496Z,99849.06
2023-03-29T00:52:21.436Z,99847.44
2023-03-29T00:52:35.312Z,99846.50
2023-03-29T00:52:55.055Z,99853.44
2023-03-29T00:53:35.712Z,99842.16
2023-03-29T00:53:53.717Z,99845.66
2023-03-29T00:54:08.192Z,99837.06
2023-03-29T00:54:20.218Z,99839.66
2023-03-29T00:54:32.879Z,99844.91
2023-03-29T00:54:46.287Z,99834.59
2023-03-29T00:55:03.515Z,99844.09
2023-03-29T00:55:19.955Z,99841.47
2023-03-29T00:55:54.111Z,99839.00
2023-03-29T00:56:10.054Z,99839.78
2023-03-29T00:56:29.772Z,99836.31
2023-03-29T00:56:49.691Z,99839.00
2023-03-29T00:57:03.938Z,99838.09
2023-03-29T00:57:20.456Z,99839.88
2023-03-29T00:57:35.818Z,99834.81
2023-03-29T00:57:49.159Z,99842.56
2023-03-29T00:58:04.578Z,99835.66
2023-03-29T00:58:23.342Z,99832.25
2023-03-29T00:58:43.094Z,99833.13
2023-03-29T00:59:09.928Z,99833.13
2023-03-29T00:59:28.467Z,99833.88
2023-03-29T00:59:42.719Z,99835.59
2023-03-29T00:59:56.585Z,99830.41
2023-03-29T01:00:12.031Z,99830.41
2023-03-29T01:00:31.795Z,99831.25
2023-03-29T01:01:02.647Z,99833.88
2023-03-29T01:01:21.438Z,99834.75
2023-03-29T01:01:59.803Z,99823.50
2023-03-29T01:02:11.867Z,99825.22
2023-03-29T01:02:29.071Z,99826.91
2023-03-29T01:02:42.324Z,99821.88
2023-03-29T01:02:59.565Z,99826.22
2023-03-29T01:03:14.586Z,99815.88
2023-03-29T01:03:30.179Z,99822.84
2023-03-29T01:03:48.609Z,99824.50
2023-03-29T01:04:08.412Z,99824.50
2023-03-29T01:04:25.872Z,99821.88
2023-03-29T01:04:58.925Z,99821.88
2023-03-29T01:05:16.417Z,99820.09
2023-03-29T01:05:38.173Z,99813.22
2023-03-29T01:05:56.764Z,99815.78
2023-03-29T01:06:10.581Z,99813.13
2023-03-29T01:06:26.141Z,99814.84
2023-03-29T01:06:43.291Z,99820.03
2023-03-29T01:07:25.848Z,99814.75
2023-03-29T01:07:49.320Z,99811.44
2023-03-29T01:08:18.358Z,99813.09
2023-03-29T01:08:37.412Z,99813.13
2023-03-29T01:08:58.121Z,99804.53
2023-03-29T01:09:14.606Z,99802.81
2023-03-29T01:09:30.421Z,99804.53
2023-03-29T01:09:48.471Z,99802.75
2023-03-29T01:10:12.746Z,99802.84
2023-03-29T01:10:49.521Z,99799.34
2023-03-29T01:11:08.512Z,99795.88
2023-03-29T01:11:26.549Z,99797.56
2023-03-29T01:11:45.680Z,99795.94
2023-03-29T01:12:02.727Z,99789.13
2023-03-29T01:12:23.589Z,99791.69
2023-03-29T01:12:43.295Z,99792.63
2023-03-29T01:13:01.873Z,99796.94
2023-03-29T01:13:20.822Z,99790.88
2023-03-29T01:13:39.377Z,99794.31
2023-03-29T01:14:02.502Z,99794.41
2023-03-29T01:14:21.717Z,99792.69
2023-03-29T01:14:42.570Z,99790.91
2023-03-29T01:14:58.338Z,99787.44
2023-03-29T01:15:17.972Z,99793.38
2023-03-29T01:15:30.462Z,99785.56
2023-03-29T01:15:45.292Z,99792.47
2023-03-29T01:15:58.992Z,99795.03
2023-03-29T01:16:13.441Z,99790.66
2023-03-29T01:16:28.484Z,99785.38
2023-03-29T01:16:41.187Z,99791.41
2023-03-29T01:16:53.250Z,99789.66
2023-03-29T01:17:06.600Z,99789.72
2023-03-29T01:17:21.928Z,99789.66
2023-03-29T01:17:33.948Z,99793.13
2023-03-29T01:17:50.876Z,99786.19
2023-03-29T01:18:03.089Z,99783.59
2023-03-29T01:18:15.108Z,99787.00
2023-03-29T01:18:27.150Z,99785.31
2023-03-29T01:18:39.659Z,99787.88
2023-03-29T01:18:52.503Z,99786.94
2023-03-29T01:19:07.256Z,99786.94
2023-03-29T01:19:22.304Z,99789.53
2023-03-29T01:19:46.704Z,99788.63
2023-03-29T01:20:10.556Z,99786.19
2023-03-29T01:20:25.242Z,99780.13
2023-03-29T01:20:51.025Z,99781.97
2023-03-29T01:21:24.381Z,99780.31
2023-03-29T01:22:04.025Z,99788.09
2023-03-29T01:22:38.612Z,99783.72
2023-03-29T01:23:21.414Z,99785.38
2023-03-29T01:23:46.483Z,99786.28
2023-03-29T01:24:22.128Z,99776.97
2023-03-29T01:24:52.296Z,99780.63
2023-03-29T01:25:26.119Z,99776.28
2023-03-29T01:25:59.007Z,99775.50
2023-03-29T01:26:36.131Z,99772.06
2023-03-29T01:27:00.564Z,99771.13
2023-03-29T01:27:37.204Z,99774.72
2023-03-29T01:27:50.099Z,99776.63
2023-03-29T01:28:17.294Z,99770.56
2023-03-29T01:28:52.830Z,99770.50
2023-03-29T01:29:04.737Z,99774.78
2023-03-29T01:29:31.969Z,99767.00
2023-03-29T01:30:10.318Z,99775.59
2023-03-29T01:30:48.247Z,99773.72
2023-03-29T01:31:09.175Z,99766.75
2023-03-29T01:31:32.441Z,99766.69
2023-03-29T01:31:49.845Z,99764.00
2023-03-29T01:32:17.082Z,99768.28
2023-03-29T01:32:48.759Z,99759.59
2023-03-29T01:33:07.880Z,99760.69
2023-03-29T01:33:28.128Z,99758.25
2023-03-29T01:33:48.787Z,99758.25
2023-03-29T01:34:11.523Z,99762.50
2023-03-29T01:34:27.343Z,99763.34
2023-03-29T01:35:00.462Z,99761.56
2023-03-29T01:35:28.430Z,99761.50
2023-03-29T01:35:44.650Z,99763.16
2023-03-29T01:36:08.005Z,99760.56
2023-03-29T01:36:35.017Z,99760.50
2023-03-29T01:36:58.791Z,99756.19
2023-03-29T01:37:17.932Z,99760.03
2023-03-29T01:37:37.753Z,99755.97
2023-03-29T01:38:07.181Z,99758.78
2023-03-29T01:38:25.600Z,99762.19
2023-03-29T01:38:45.977Z,99761.44
2023-03-29T01:39:03.259Z,99756.19
2023-03-29T01:39:15.270Z,99758.94
2023-03-29T01:39:27.473Z,99769.44
2023-03-29T01:39:39.834Z,99762.63
2023-03-29T01:39:52.929Z,99766.88
2023-03-29T01:40:06.204Z,99762.78
2023-03-29T01:40:18.315Z,99759.59
2023-03-29T01:40:33.070Z,99756.75
2023-03-29T01:40:45.030Z,99768.94
2023-03-29T01:40:56.981Z,99765.47
2023-03-29T01:41:10.359Z,99762.06
2023-03-29T01:41:23.339Z,99762.91
2023-03-29T01:41:59.293Z,99760.44
2023-03-29T01:42:25.941Z,99759.59
2023-03-29T01:43:18.863Z,99769.13
2023-03-29T01:43:56.678Z,99774.44
2023-03-29T01:44:24.969Z,99773.44
2023-03-29T01:44:46.196Z,99770.81
2023-03-29T01:45:13.464Z,99760.44
2023-03-29T01:45:34.915Z,99755.16
2023-03-29T01:46:26.472Z,99755.03
2023-03-29T01:46:54.434Z,99755.09
2023-03-29T01:47:24.710Z,99763.56
2023-03-29T01:48:01.464Z,99757.41
2023-03-29T01:48:41.200Z,99758.03
2023-03-29T01:48:58.191Z,99756.25
2023-03-29T01:49:51.219Z,99757.91
2023-03-29T01:50:22.611Z,99755.34
2023-03-29T01:50:58.314Z,99750.00
2023-03-29T01:51:18.402Z,99743.97
2023-03-29T01:51:41.814Z,99756.97
2023-03-29T01:52:17.101Z,99756.06
2023-03-29T01:52:39.665Z,99757.75
2023-03-29T01:52:59.474Z,99755.97
2023-03-29T01:53:14.626Z,99755.97
2023-03-29T01:53:44.054Z,99751.53
2023-03-29T01:54:27.998Z,99757.59
2023-03-29T01:54:50.268Z,99757.50
2023-03-29T01:55:14.758Z,99751.34
2023-03-29T01:55:38.241Z,99754.25
2023-03-29T01:55:54.916Z,99754.34
2023-03-29T01:56:21.581Z,99749.22
2023-03-29T01:56:37.804Z,99750.00
2023-03-29T01:56:51.283Z,99751.66
2023-03-29T01:57:05.697Z,99752.47
2023-03-29T01:57:19.734Z,99746.31
2023-03-29T01:57:33.552Z,99736.88
2023-03-29T01:57:47.725Z,99742.03
2023-03-29T01:58:01.782Z,99742.00
2023-03-29T01:58:17.031Z,99736.88
2023-03-29T01:58:34.228Z,99743.97
2023-03-29T01:58:51.212Z,99740.56
2023-03-29T01:59:14.396Z,99744.81
2023-03-29T01:59:31.110Z,99736.25
2023-03-29T01:59:44.950Z,99740.59
2023-03-29T01:59:58.276Z,99744.03
2023-03-29T02:00:16.517Z,99742.44
2023-03-29T02:00:29.805Z,99745.03
2023-03-29T02:00:43.870Z,99743.31
2023-03-29T02:00:55.930Z,99741.47
2023-03-29T02:01:13.845Z,99742.25
2023-03-29T02:01:30.478Z,99743.97
2023-03-29T02:01:49.068Z,99732.69
2023-03-29T02:02:05.488Z,99740.56
2023-03-29T02:02:20.405Z,99737.88
2023-03-29T02:02:32.942Z,99735.28
2023-03-29T02:02:47.222Z,99736.06
2023-03-29T02:03:04.793Z,99736.88
2023-03-29T02:03:18.774Z,99736.88
2023-03-29T02:03:33.858Z,99741.97
2023-03-29T02:03:50.760Z,99735.00
2023-03-29T02:04:06.453Z,99735.81
2023-03-29T02:04:25.521Z,99735.91
2023-03-29T02:04:45.843Z,99734.94
2023-03-29T02:04:59.307Z,99743.75
2023-03-29T02:05:15.108Z,99736.00
2023-03-29T02:05:30.615Z,99745.53
2023-03-29T02:05:44.720Z,99743.88
2023-03-29T02:05:59.163Z,99747.59
2023-03-29T02:06:15.475Z,99735.38
2023-03-29T02:06:29.778Z,99740.47
2023-03-29T02:06:42.775Z,99737.00
2023-03-29T02:06:57.512Z,99735.19
2023-03-29T02:07:10.577Z,99743.88
2023-03-29T02:07:27.070Z,99737.00
2023-03-29T02:07:40.555Z,99737.16
2023-03-29T02:07:53.280Z,99735.59
2023-03-29T02:08:09.282Z,99740.00
2023-03-29T02:08:23.031Z,99739.09
2023-03-29T02:08:35.755Z,99736.41
2023-03-29T02:08:48.591Z,99737.38
2023-03-29T02:09:01.430Z,99740.41
2023-03-29T02:09:13.503Z,99735.34
2023-03-29T02:09:28.716Z,99733.59
2023-03-29T02:09:42.759Z,99728.38
2023-03-29T02:09:55.546Z,99739.47
2023-03-29T02:10:09.903Z,99734.25
2023-03-29T02:10:23.536Z,99733.28
2023-03-29T02:10:36.805Z,99736.69
2023-03-29T02:10:51.673Z,99739.19
2023-03-29T02:11:04.577Z,99736.56
2023-03-29T02:11:17.516Z,99734.75
2023-03-29T02:11:29.678Z,99739.00
2023-03-29T02:11:44.366Z,99729.44
2023-03-29T02:12:03.450Z,99735.44
2023-03-29T02:12:16.843Z,99741.53
2023-03-29T02:12:28.859Z,99734.63
2023-03-29T02:12:41.407Z,99737.22
2023-03-29T02:12:53.469Z,99732.13
2023-03-29T02:13:05.804Z,99738.94
2023-03-29T02:13:18.988Z,99732.84
2023-03-29T02:13:31.684Z,99723.28
2023-03-29T02:13:43.631Z,99733.66
2023-03-29T02:13:56.877Z,99731.97
2023-03-29T02:14:09.839Z,99738.06
2023-03-29T02:14:21.905Z,99737.16
2023-03-29T02:14:33.802Z,99738.84
2023-03-29T02:14:45.726Z,99737.06
2023-03-29T02:14:58.920Z,99732.78
2023-03-29T02:15:14.507Z,99731.88
2023-03-29T02:15:26.463Z,99733.50
2023-03-29T02:15:39.747Z,99730.06
2023-03-29T02:15:51.900Z,99731.75
2023-03-29T02:16:15.309Z,99727.38
2023-03-29T02:16:27.493Z,99735.09
2023-03-29T02:16:40.332Z,99733.31
2023-03-29T02:16:52.290Z,99724.66
2023-03-29T02:17:33.395Z,99727.97
2023-03-29T02:17:46.776Z,99724.47
2023-03-29T02:17:59.103Z,99727.88
2023-03-29T02:18:11.906Z,99731.44
2023-03-29T02:18:24.630Z,99727.06
2023-03-29T02:18:36.511Z,99729.66
2023-03-29T02:18:49.960Z,99727.13
2023-03-29T02:19:02.674Z,99728.84
2023-03-29T02:19:15.325Z,99731.44
2023-03-29T02:19:27.924Z,99732.25
2023-03-29T02:19:40.287Z,99727.31
2023-03-29T02:20:14.436Z,99723.09
2023-03-29T02:20:31.883Z,99733.50
2023-03-29T02:20:50.693Z,99738.00
2023-03-29T02:21:02.867Z,99733.91
2023-03-29T02:21:26.395Z,99734.09
2023-03-29T02:21:53.309Z,99734.84
2023-03-29T02:22:10.149Z,99734.25
2023-03-29T02:22:28.806Z,99732.47
2023-03-29T02:22:59.121Z,99734.88
2023-03-29T02:23:45.240Z,99732.13
2023-03-29T02:24:02.011Z,99729.41
2023-03-29T02:24:17.912Z,99729.38
2023-03-29T02:24:32.967Z,99725.88
2023-03-29T02:24:48.178Z,99721.66
2023-03-29T02:25:03.472Z,99720.84
2023-03-29T02:25:17.396Z,99732.06
2023-03-29T02:25:30.049Z,99727.69
2023-03-29T02:25:45.528Z,99734.59
2023-03-29T02:25:57.605Z,99734.50
2023-03-29T02:26:09.858Z,99728.44
2023-03-29T02:26:22.550Z,99727.53
2023-03-29T02:26:34.898Z,99723.16
2023-03-29T02:26:47.616Z,99726.56
2023-03-29T02:27:01.080Z,99726.50
2023-03-29T02:27:13.062Z,99729.91
2023-03-29T02:27:28.009Z,99732.50
2023-03-29T02:27:40.085Z,99723.16
2023-03-29T02:27:52.796Z,99724.88
2023-03-29T02:28:06.881Z,99727.38
2023-03-29T02:28:21.595Z,99725.63
2023-03-29T02:28:33.578Z,99725.59
2023-03-29T02:28:45.696Z,99722.19
2023-03-29T02:29:00.945Z,99724.81
2023-03-29T02:29:13.125Z,99724.78
2023-03-29T02:29:26.214Z,99723.91
2023-03-29T02:29:38.449Z,99728.19
2023-03-29T02:29:50.558Z,99724.13
2023-03-29T02:30:02.650Z,99729.28
2023-03-29T02:30:18.350Z,99729.19
2023-03-29T02:30:38.016Z,99726.66
2023-03-29T02:31:08.045Z,99722.34
2023-03-29T02:31:32.288Z,99727.53
2023-03-29T02:31:51.742Z,99727.53
2023-03-29T02:32:12.749Z,99727.63
2023-03-29T02:32:33.900Z,99726.69
2023-03-29T02:32:53.078Z,99730.09
2023-03-29T02:33:12.105Z,99717.97
2023-03-29T02:33:34.397Z,99723.97
2023-03-29T02:33:54.491Z,99722.28
2023-03-29T02:34:22.975Z,99723.09
2023-03-29T02:34:43.419Z,99725.63
2023-03-29T02:35:04.506Z,99718.72
2023-03-29T02:35:23.236Z,99726.41
2023-03-29T02:35:45.858Z,99722.94
2023-03-29T02:36:07.811Z,99724.56
2023-03-29T02:36:46.657Z,99722.78
2023-03-29T02:37:04.265Z,99723.56
2023-03-29T02:37:18.906Z,99719.22
2023-03-29T02:37:34.379Z,99721.78
2023-03-29T02:37:49.847Z,99719.13
2023-03-29T02:38:08.770Z,99713.06
2023-03-29T02:38:21.942Z,99712.16
2023-03-29T02:38:34.963Z,99713.88
2023-03-29T02:38:47.516Z,99715.56
2023-03-29T02:39:02.290Z,99719.06
2023-03-29T02:39:16.216Z,99712.16
2023-03-29T02:39:31.685Z,99717.34
2023-03-29T02:39:44.255Z,99708.69
2023-03-29T02:39:57.761Z,99713.78
2023-03-29T02:40:13.041Z,99716.38
2023-03-29T02:40:26.075Z,99711.19
2023-03-29T02:40:39.936Z,99712.00
2023-03-29T02:40:52.913Z,99713.72
2023-03-29T02:41:06.902Z,99713.69
2023-03-29T02:41:19.718Z,99703.25
2023-03-29T02:41:32.681Z,99710.13
2023-03-29T02:41:48.523Z,99713.56
2023-03-29T02:42:02.804Z,99710.09
2023-03-29T02:42:17.714Z,99708.31
2023-03-29T02:42:31.300Z,99710.91
2023-03-29T02:42:45.656Z,99710.81
2023-03-29T02:42:59.549Z,99712.56
2023-03-29T02:43:13.204Z,99713.41
2023-03-29T02:43:26.197Z,99702.09
2023-03-29T02:43:40.944Z,99703.84
2023-03-29T02:43:55.842Z,99708.16
2023-03-29T02:44:14.053Z,99709.84
2023-03-29T02:44:29.668Z,99706.34
2023-03-29T02:44:42.425Z,99709.75
2023-03-29T02:44:57.014Z,99705.38
2023-03-29T02:45:11.416Z,99703.63
2023-03-29T02:45:25.262Z,99704.47
2023-03-29T02:45:39.622Z,99699.22
2023-03-29T02:45:53.203Z,99702.69
2023-03-29T02:46:07.675Z,99693.22
2023-03-29T02:46:20.873Z,99694.91
2023-03-29T02:46:33.164Z,99694.03
2023-03-29T02:46:48.756Z,99699.22
2023-03-29T02:47:07.688Z,99692.31
2023-03-29T02:47:24.956Z,99689.72
2023-03-29T02:47:48.273Z,99692.31
2023-03-29T02:48:05.061Z,99686.28
2023-03-29T02:48:21.051Z,99693.22
2023-03-29T02:48:37.027Z,99688.91
2023-03-29T02:48:51.214Z,99692.31
2023-03-29T02:49:05.395Z,99688.84
2023-03-29T02:49:17.348Z,99690.56
2023-03-29T02:49:29.314Z,99685.44
2023-03-29T02:49:41.433Z,99684.56
2023-03-29T02:49:54.722Z,99685.78
2023-03-29T02:50:08.477Z,99689.19
2023-03-29T02:50:21.296Z,99688.47
2023-03-29T02:50:39.338Z,99687.47
2023-03-29T02:50:56.159Z,99685.69
2023-03-29T02:51:19.902Z,99689.09
2023-03-29T02:51:34.078Z,99689.00
2023-03-29T02:51:49.273Z,99688.09
2023-03-29T02:52:08.792Z,99689.81
2023-03-29T02:52:28.115Z,99690.69
2023-03-29T02:52:48.452Z,99682.88
2023-03-29T02:53:04.671Z,99684.66
2023-03-29T02:53:20.896Z,99682.88
2023-03-29T02:53:41.397Z,99683.72
2023-03-29T02:54:00.151Z,99689.72
2023-03-29T02:54:16.177Z,99678.53
2023-03-29T02:54:31.772Z,99681.94
2023-03-29T02:54:48.312Z,99681.97
2023-03-29T02:55:04.254Z,99688.03
2023-03-29T02:55:17.674Z,99688.91
2023-03-29T02:55:34.467Z,99688.91
2023-03-29T02:55:47.146Z,99681.22
2023-03-29T02:56:02.130Z,99686.28
2023-03-29T02:56:16.787Z,99678.81
2023-03-29T02:56:29.600Z,99684.00
2023-03-29T02:56:49.991Z,99684.91
2023-03-29T02:57:07.975Z,99686.63
2023-03-29T02:57:26.311Z,99680.59
2023-03-29T02:57:39.575Z,99674.50
2023-03-29T02:57:51.541Z,99682.28
2023-03-29T02:58:08.428Z,99682.28
2023-03-29T02:58:20.681Z,99680.50
2023-03-29T02:58:32.889Z,99686.47
2023-03-29T02:58:44.832Z,99690.81
2023-03-29T02:58:56.774Z,99677.81
2023-03-29T02:59:09.676Z,99684.81
2023-03-29T02:59:22.663Z,99683.09
2023-03-29T02:59:35.188Z,99681.34
2023-03-29T02:59:47.114Z,99677.03
2023-03-29T03:00:00.925Z,99681.34
2023-03-29T03:00:14.711Z,99681.34
2023-03-29T03:00:26.616Z,99679.50
2023-03-29T03:00:42.190Z,99682.94
2023-03-29T03:00:56.354Z,99669.97
2023-03-29T03:01:09.657Z,99675.97
2023-03-29T03:01:22.899Z,99671.66
2023-03-29T03:01:36.841Z,99670.78
2023-03-29T03:01:49.979Z,99676.84
2023-03-29T03:02:03.425Z,99677.66
2023-03-29T03:02:17.476Z,99669.00
2023-03-29T03:02:30.496Z,99675.06
2023-03-29T03:02:42.801Z,99671.56
2023-03-29T03:02:55.406Z,99672.47
2023-03-29T03:03:08.735Z,99673.28
2023-03-29T03:03:21.978Z,99664.59
2023-03-29T03:03:35.845Z,99668.94
2023-03-29T03:03:48.234Z,99667.19
2023-03-29T03:04:00.286Z,99674.16
2023-03-29T03:04:13.150Z,99671.53
2023-03-29T03:04:25.966Z,99669.78
2023-03-29T03:04:38.166Z,99669.78
2023-03-29T03:04:50.112Z,99674.94
2023-03-29T03:05:02.014Z,99678.47
2023-03-29T03:05:14.144Z,99669.91
2023-03-29T03:05:26.049Z,99674.97
2023-03-29T03:05:38.730Z,99674.09
2023-03-29T03:05:52.346Z,99681.88
2023-03-29T03:06:04.829Z,99671.50
2023-03-29T03:06:16.978Z,99673.28
2023-03-29T03:06:29.082Z,99678.47
2023-03-29T03:06:41.416Z,99671.56
2023-03-29T03:06:53.371Z,99675.06
2023-03-29T03:07:05.385Z,99672.41
2023-03-29T03:07:17.491Z,99673.28
2023-03-29T03:07:29.788Z,99673.28
2023-03-29T03:07:42.399Z,99669.78
2023-03-29T03:07:54.398Z,99675.78
2023-03-29T03:08:07.432Z,99671.50
2023-03-29T03:08:19.797Z,99673.28
2023-03-29T03:08:32.185Z,99679.28
2023-03-29T03:08:44.372Z,99673.19
2023-03-29T03:08:56.684Z,99672.25
2023-03-29T03:09:09.741Z,99674.78
2023-03-29T03:09:21.670Z,99674.13
2023-03-29T03:09:34.227Z,99670.78
2023-03-29T03:09:49.479Z,99671.72
2023-03-29T03:10:01.682Z,99674.25
2023-03-29T03:10:16.698Z,99670.84
2023-03-29T03:10:28.654Z,99671.84
2023-03-29T03:10:40.973Z,99670.16
2023-03-29T03:10:54.028Z,99670.09
2023-03-29T03:11:06.992Z,99669.25
2023-03-29T03:11:18.926Z,99672.66
2023-03-29T03:11:32.057Z,99670.91